OMJ YMOR-YARM

Flight info

Callsign OMJ
Flight time N/A
Altitude 7000
Route MOR DCT ARM
Aircraft C208/L-SDFGR/C

Departure

Time N/A
Airport Moree Airport (YMOR)

Arrival

Time 2026-04-20 07:02
Airport Armidale Airport (YARM)
Time Latitude Longitude Altitude Speed Heading
2026-04-20 06:29 -29.87559 150.46591 5446 ft 91 kts 129°
2026-04-20 06:29 -29.87947 150.47279 5432 ft 113 kts 127°
2026-04-20 06:29 -29.88404 150.48074 5431 ft 124 kts 127°
2026-04-20 06:30 -29.88887 150.48915 5407 ft 128 kts 126°
2026-04-20 06:30 -29.89382 150.49778 5376 ft 130 kts 127°
2026-04-20 06:30 -29.89880 150.50649 5334 ft 130 kts 127°
2026-04-20 06:30 -29.90380 150.51522 5295 ft 131 kts 127°
2026-04-20 06:31 -29.90881 150.52390 5245 ft 129 kts 128°
2026-04-20 06:31 -29.91376 150.53251 5191 ft 129 kts 127°
2026-04-20 06:31 -29.91870 150.54113 5140 ft 128 kts 127°
2026-04-20 06:31 -29.92365 150.54977 5088 ft 130 kts 127°
2026-04-20 06:32 -29.92859 150.55837 5044 ft 131 kts 127°
2026-04-20 06:32 -29.93361 150.56709 4996 ft 131 kts 127°
2026-04-20 06:32 -29.93864 150.57585 4946 ft 131 kts 127°
2026-04-20 06:32 -29.94365 150.58461 4894 ft 131 kts 127°
2026-04-20 06:33 -29.94871 150.59342 4843 ft 132 kts 127°
2026-04-20 06:33 -29.95375 150.60219 4800 ft 130 kts 128°
2026-04-20 06:33 -29.95867 150.61081 4743 ft 128 kts 128°
2026-04-20 06:33 -29.96352 150.61932 4693 ft 127 kts 129°
2026-04-20 06:34 -29.96839 150.62777 4672 ft 126 kts 129°
2026-04-20 06:34 -29.97309 150.63599 4762 ft 118 kts 129°
2026-04-20 06:34 -29.98179 150.65131 4978 ft 113 kts 127°
2026-04-20 06:35 -29.98612 150.65875 5085 ft 110 kts 128°
2026-04-20 06:35 -29.99029 150.66611 5203 ft 108 kts 128°
2026-04-20 06:35 -29.99439 150.67323 5321 ft 105 kts 128°
2026-04-20 06:35 -29.99835 150.68016 5444 ft 102 kts 127°
2026-04-20 06:36 -30.00233 150.68710 5497 ft 110 kts 128°
2026-04-20 06:36 -30.00673 150.69480 5509 ft 118 kts 127°
2026-04-20 06:36 -30.01134 150.70282 5508 ft 121 kts 127°
2026-04-20 06:36 -30.01606 150.71105 5510 ft 125 kts 127°
2026-04-20 06:37 -30.02088 150.71953 5504 ft 127 kts 127°
2026-04-20 06:37 -30.02578 150.72808 5505 ft 128 kts 128°
2026-04-20 06:37 -30.03066 150.73660 5502 ft 127 kts 127°
2026-04-20 06:37 -30.03547 150.74503 5499 ft 125 kts 126°
2026-04-20 06:38 -30.04025 150.75344 5503 ft 125 kts 126°
2026-04-20 06:38 -30.04500 150.76175 5504 ft 124 kts 127°
2026-04-20 06:38 -30.04975 150.77005 5501 ft 124 kts 126°
2026-04-20 06:38 -30.05452 150.77840 5497 ft 124 kts 126°
2026-04-20 06:39 -30.05926 150.78671 5500 ft 123 kts 126°
2026-04-20 06:39 -30.06395 150.79495 5499 ft 123 kts 127°
2026-04-20 06:39 -30.06864 150.80312 5498 ft 121 kts 127°
2026-04-20 06:39 -30.07342 150.81152 5492 ft 129 kts 127°
2026-04-20 06:40 -30.07849 150.82038 5494 ft 135 kts 125°
2026-04-20 06:40 -30.08370 150.82950 5497 ft 137 kts 125°
2026-04-20 06:40 -30.08902 150.83884 5500 ft 140 kts 126°
2026-04-20 06:40 -30.09442 150.84832 5502 ft 143 kts 126°
2026-04-20 06:41 -30.09984 150.85785 5505 ft 144 kts 126°
2026-04-20 06:41 -30.10531 150.86745 5507 ft 142 kts 126°
2026-04-20 06:41 -30.11071 150.87697 5516 ft 140 kts 128°
2026-04-20 06:41 -30.11610 150.88640 5513 ft 141 kts 128°
2026-04-20 06:42 -30.12152 150.89591 5513 ft 142 kts 127°
2026-04-20 06:42 -30.12696 150.90546 5511 ft 142 kts 126°
2026-04-20 06:42 -30.13240 150.91507 5514 ft 143 kts 126°
2026-04-20 06:42 -30.13792 150.92474 5510 ft 145 kts 125°
2026-04-20 06:43 -30.14347 150.93452 5509 ft 145 kts 125°
2026-04-20 06:43 -30.14901 150.94427 5509 ft 145 kts 126°
2026-04-20 06:43 -30.15455 150.95401 5509 ft 145 kts 126°
2026-04-20 06:43 -30.16008 150.96375 5511 ft 145 kts 127°
2026-04-20 06:44 -30.16562 150.97348 5507 ft 145 kts 126°
2026-04-20 06:44 -30.17118 150.98328 5504 ft 146 kts 126°
2026-04-20 06:44 -30.17675 150.99310 5512 ft 146 kts 125°
2026-04-20 06:44 -30.18232 151.00291 5511 ft 146 kts 125°
2026-04-20 06:45 -30.18788 151.01270 5512 ft 146 kts 126°
2026-04-20 06:45 -30.19341 151.02245 5514 ft 145 kts 125°
2026-04-20 06:45 -30.19895 151.03220 5509 ft 145 kts 125°
2026-04-20 06:45 -30.20443 151.04187 5508 ft 144 kts 125°
2026-04-20 06:46 -30.20987 151.05144 5511 ft 141 kts 124°
2026-04-20 06:46 -30.21529 151.06101 5510 ft 143 kts 124°
2026-04-20 06:46 -30.22068 151.07052 5508 ft 145 kts 124°
2026-04-20 06:46 -30.22621 151.08028 5508 ft 146 kts 123°
2026-04-20 06:47 -30.23178 151.09011 5506 ft 146 kts 124°
2026-04-20 06:47 -30.23730 151.09988 5508 ft 144 kts 124°
2026-04-20 06:47 -30.24277 151.10955 5518 ft 143 kts 124°
2026-04-20 06:47 -30.24820 151.11914 5516 ft 142 kts 124°
2026-04-20 06:48 -30.25358 151.12866 5512 ft 141 kts 124°
2026-04-20 06:48 -30.25893 151.13810 5513 ft 140 kts 125°
2026-04-20 06:48 -30.26426 151.14754 5512 ft 140 kts 124°
2026-04-20 06:48 -30.26961 151.15700 5511 ft 141 kts 123°
2026-04-20 06:49 -30.27503 151.16657 5513 ft 143 kts 123°
2026-04-20 06:49 -30.28057 151.17622 5517 ft 144 kts 127°
2026-04-20 06:49 -30.28627 151.18589 5512 ft 146 kts 124°
2026-04-20 06:49 -30.29166 151.19587 5513 ft 146 kts 124°
2026-04-20 06:50 -30.29717 151.20566 5511 ft 144 kts 123°
2026-04-20 06:50 -30.30257 151.21528 5507 ft 144 kts 123°
2026-04-20 06:50 -30.30801 151.22493 5520 ft 143 kts 123°
2026-04-20 06:50 -30.31344 151.23457 5516 ft 143 kts 123°
2026-04-20 06:51 -30.31890 151.24422 5514 ft 145 kts 124°
2026-04-20 06:51 -30.32440 151.25401 5510 ft 145 kts 124°
2026-04-20 06:51 -30.32993 151.26381 5508 ft 146 kts 123°
2026-04-20 06:51 -30.33549 151.27367 5510 ft 146 kts 123°
2026-04-20 06:52 -30.34102 151.28348 5509 ft 145 kts 123°
2026-04-20 06:52 -30.34652 151.29327 5510 ft 145 kts 124°
2026-04-20 06:52 -30.35211 151.30299 5511 ft 145 kts 124°
2026-04-20 06:52 -30.35760 151.31278 5509 ft 145 kts 123°
2026-04-20 06:53 -30.36310 151.32259 5517 ft 147 kts 123°
2026-04-20 06:53 -30.36868 151.33255 5509 ft 147 kts 124°
2026-04-20 06:53 -30.37423 151.34246 5518 ft 147 kts 123°
2026-04-20 06:53 -30.37977 151.35229 5521 ft 145 kts 123°
2026-04-20 06:54 -30.38518 151.36200 5521 ft 144 kts 123°
2026-04-20 06:54 -30.39066 151.37165 5519 ft 142 kts 123°
2026-04-20 06:54 -30.39603 151.38117 5522 ft 144 kts 123°
2026-04-20 06:54 -30.40159 151.39104 5518 ft 144 kts 124°
2026-04-20 06:55 -30.40694 151.40056 5508 ft 142 kts 124°
2026-04-20 06:55 -30.41231 151.41019 5489 ft 142 kts 124°
2026-04-20 06:55 -30.41761 151.41965 5500 ft 140 kts 124°
2026-04-20 06:55 -30.42304 151.42924 5505 ft 144 kts 124°
2026-04-20 06:56 -30.42766 151.43968 5507 ft 148 kts 113°
2026-04-20 06:56 -30.43140 151.45081 5505 ft 148 kts 112°
2026-04-20 06:56 -30.43512 151.46197 5518 ft 148 kts 112°
2026-04-20 06:56 -30.43873 151.47317 5517 ft 149 kts 111°
2026-04-20 06:57 -30.44206 151.48448 5513 ft 146 kts 110°
2026-04-20 06:57 -30.44529 151.49551 5511 ft 143 kts 111°
2026-04-20 06:57 -30.44852 151.50644 5505 ft 144 kts 110°
2026-04-20 06:57 -30.45175 151.51732 5512 ft 142 kts 111°
2026-04-20 06:58 -30.45496 151.52813 5513 ft 142 kts 111°
2026-04-20 06:58 -30.45821 151.53902 5511 ft 143 kts 110°
2026-04-20 06:58 -30.46153 151.54995 5511 ft 144 kts 111°
2026-04-20 06:58 -30.46482 151.56091 5510 ft 144 kts 110°
2026-04-20 06:59 -30.46819 151.57194 5522 ft 146 kts 111°
2026-04-20 06:59 -30.47163 151.58308 5520 ft 147 kts 111°
2026-04-20 06:59 -30.47510 151.59437 5417 ft 151 kts 111°
2026-04-20 06:59 -30.47865 151.60598 5309 ft 152 kts 111°
2026-04-20 07:00 -30.48201 151.61688 5175 ft 136 kts 111°
2026-04-20 07:00 -30.48508 151.62682 4991 ft 129 kts 117°
2026-04-20 07:00 -30.49129 151.63366 4799 ft 119 kts 148°
2026-04-20 07:00 -30.49790 151.63848 4622 ft 107 kts 147°
2026-04-20 07:01 -30.50363 151.64281 4449 ft 92 kts 147°
2026-04-20 07:01 -30.50899 151.64610 4240 ft 86 kts 174°
2026-04-20 07:01 -30.51425 151.64290 4019 ft 89 kts 213°
2026-04-20 07:01 -30.51802 151.63729 3836 ft 88 kts 234°
2026-04-20 07:02 -30.52125 151.63097 3704 ft 96 kts 227°
2026-04-20 07:02 -30.52480 151.62428 3579 ft 98 kts 232°
2026-04-20 07:02 -30.52812 151.61823 3550 ft 78 kts 239°
2026-04-20 07:02 -30.52999 151.61480 3555 ft 15 kts 211°
2026-04-20 07:03 -30.53045 151.61499 3555 ft 4 kts 143°
2026-04-20 07:03 -30.53080 151.61556 3555 ft 9 kts 46°
2026-04-20 07:03 -30.53076 151.61561 3554 ft 0 kts 45°